sensor_id;sensor_type;location;lat;lon;timestamp;pressure;altitude;pressure_sealevel;temperature;humidity
3598;BME280;1813;52.016;8.714;2023-06-24T00:02:17;-16261.94;;;-139.71;68.47
3598;BME280;1813;52.016;8.714;2023-06-24T00:04:55;-16261.94;;;-139.71;68.51
3598;BME280;1813;52.016;8.714;2023-06-24T00:07:33;-16261.94;;;-139.71;68.43
3598;BME280;1813;52.016;8.714;2023-06-24T00:10:14;-16261.94;;;-139.71;68.61
3598;BME280;1813;52.016;8.714;2023-06-24T00:12:48;-16261.94;;;-139.71;68.89
3598;BME280;1813;52.016;8.714;2023-06-24T00:15:22;-16261.94;;;-139.71;69.22
3598;BME280;1813;52.016;8.714;2023-06-24T00:17:56;-16261.94;;;-139.71;69.55
3598;BME280;1813;52.016;8.714;2023-06-24T00:20:36;-16261.94;;;-139.71;69.79
3598;BME280;1813;52.016;8.714;2023-06-24T00:23:18;-16261.94;;;-139.71;69.88
3598;BME280;1813;52.016;8.714;2023-06-24T00:25:55;-16261.94;;;-139.71;69.74
3598;BME280;1813;52.016;8.714;2023-06-24T00:28:29;-16261.94;;;-139.71;70.14
3598;BME280;1813;52.016;8.714;2023-06-24T00:31:03;-16261.94;;;-139.71;69.98
3598;BME280;1813;52.016;8.714;2023-06-24T00:33:37;-16261.94;;;-139.71;70.31
3598;BME280;1813;52.016;8.714;2023-06-24T00:36:11;-16261.94;;;-139.71;71.11
3598;BME280;1813;52.016;8.714;2023-06-24T00:38:48;-16261.94;;;-139.71;71.40
3598;BME280;1813;52.016;8.714;2023-06-24T00:41:22;-16261.94;;;-139.71;71.87
3598;BME280;1813;52.016;8.714;2023-06-24T00:43:57;-16261.94;;;-139.71;71.51
3598;BME280;1813;52.016;8.714;2023-06-24T00:46:32;-16261.94;;;-139.71;71.81
3598;BME280;1813;52.016;8.714;2023-06-24T00:49:06;-16261.94;;;-139.71;71.84
3598;BME280;1813;52.016;8.714;2023-06-24T00:51:40;-16261.94;;;-139.71;71.69
3598;BME280;1813;52.016;8.714;2023-06-24T00:54:23;-16261.94;;;-139.71;71.53
3598;BME280;1813;52.016;8.714;2023-06-24T00:57:01;-16261.94;;;-139.71;72.69
3598;BME280;1813;52.016;8.714;2023-06-24T00:59:35;-16261.94;;;-139.71;73.13
3598;BME280;1813;52.016;8.714;2023-06-24T01:02:10;-16261.94;;;-139.71;73.38
3598;BME280;1813;52.016;8.714;2023-06-24T01:04:44;-16261.94;;;-139.71;73.96
3598;BME280;1813;52.016;8.714;2023-06-24T01:07:20;-16261.94;;;-139.71;73.92
3598;BME280;1813;52.016;8.714;2023-06-24T01:09:57;-16261.94;;;-139.71;73.65
3598;BME280;1813;52.016;8.714;2023-06-24T01:12:31;-16261.94;;;-139.71;74.02
3598;BME280;1813;52.016;8.714;2023-06-24T01:15:07;-16261.94;;;-139.71;74.19
3598;BME280;1813;52.016;8.714;2023-06-24T01:17:47;-16261.94;;;-139.71;74.36
3598;BME280;1813;52.016;8.714;2023-06-24T01:20:27;-16261.94;;;-139.71;74.15
3598;BME280;1813;52.016;8.714;2023-06-24T01:23:33;-16261.94;;;-139.71;74.26
3598;BME280;1813;52.016;8.714;2023-06-24T01:32:43;-16261.94;;;-139.71;74.74
3598;BME280;1813;52.016;8.714;2023-06-24T01:35:21;-16261.94;;;-139.71;74.63
3598;BME280;1813;52.016;8.714;2023-06-24T01:37:59;-16261.94;;;-139.71;74.21
3598;BME280;1813;52.016;8.714;2023-06-24T01:40:38;-16261.94;;;-139.71;74.05
3598;BME280;1813;52.016;8.714;2023-06-24T01:43:15;-16261.94;;;-139.71;74.37
3598;BME280;1813;52.016;8.714;2023-06-24T01:45:53;-16261.94;;;-139.71;74.48
3598;BME280;1813;52.016;8.714;2023-06-24T01:48:35;-16261.94;;;-139.71;73.80
3598;BME280;1813;52.016;8.714;2023-06-24T01:51:10;-16261.94;;;-139.71;73.43
3598;BME280;1813;52.016;8.714;2023-06-24T01:53:49;-16261.94;;;-139.71;73.09
3598;BME280;1813;52.016;8.714;2023-06-24T01:56:25;-16261.94;;;-139.71;73.27
3598;BME280;1813;52.016;8.714;2023-06-24T01:59:02;-16261.94;;;-139.71;73.34
3598;BME280;1813;52.016;8.714;2023-06-24T02:01:38;-16261.94;;;-139.71;73.32
3598;BME280;1813;52.016;8.714;2023-06-24T02:04:16;-16261.94;;;-139.71;72.82
3598;BME280;1813;52.016;8.714;2023-06-24T02:06:51;-16261.94;;;-139.71;73.01
3598;BME280;1813;52.016;8.714;2023-06-24T02:09:27;-16261.94;;;-139.71;73.04
3598;BME280;1813;52.016;8.714;2023-06-24T02:12:03;-16261.94;;;-139.71;73.07
3598;BME280;1813;52.016;8.714;2023-06-24T02:14:39;-16261.94;;;-139.71;73.14
3598;BME280;1813;52.016;8.714;2023-06-24T02:17:16;-16261.94;;;-139.71;73.16
3598;BME280;1813;52.016;8.714;2023-06-24T02:19:54;-16261.94;;;-139.71;73.28
3598;BME280;1813;52.016;8.714;2023-06-24T02:22:31;-16261.94;;;-139.71;73.30
3598;BME280;1813;52.016;8.714;2023-06-24T02:25:06;-16261.94;;;-139.71;73.26
3598;BME280;1813;52.016;8.714;2023-06-24T02:27:40;-16261.94;;;-139.71;73.63
3598;BME280;1813;52.016;8.714;2023-06-24T02:30:15;-16261.94;;;-139.71;73.32
3598;BME280;1813;52.016;8.714;2023-06-24T02:32:49;-16261.94;;;-139.71;73.31
3598;BME280;1813;52.016;8.714;2023-06-24T02:35:26;-16261.94;;;-139.71;73.17
3598;BME280;1813;52.016;8.714;2023-06-24T02:37:59;-16261.94;;;-139.71;73.37
3598;BME280;1813;52.016;8.714;2023-06-24T02:40:33;-16261.94;;;-139.71;73.85
3598;BME280;1813;52.016;8.714;2023-06-24T02:43:07;-16261.94;;;-139.71;74.05
3598;BME280;1813;52.016;8.714;2023-06-24T02:45:41;-16261.94;;;-139.71;73.95
3598;BME280;1813;52.016;8.714;2023-06-24T02:48:15;-16261.94;;;-139.71;73.66
3598;BME280;1813;52.016;8.714;2023-06-24T02:50:53;-16261.94;;;-139.71;73.51
3598;BME280;1813;52.016;8.714;2023-06-24T02:53:31;-16261.94;;;-139.71;73.02
3598;BME280;1813;52.016;8.714;2023-06-24T02:56:06;-16261.94;;;-139.71;73.64
3598;BME280;1813;52.016;8.714;2023-06-24T02:58:46;-16261.94;;;-139.71;74.13
3598;BME280;1813;52.016;8.714;2023-06-24T03:01:27;-16261.94;;;-139.71;74.72
3598;BME280;1813;52.016;8.714;2023-06-24T03:04:05;-16261.94;;;-139.71;74.82
3598;BME280;1813;52.016;8.714;2023-06-24T03:06:43;-16261.94;;;-139.71;74.96
3598;BME280;1813;52.016;8.714;2023-06-24T03:09:18;-16261.94;;;-139.71;75.01
3598;BME280;1813;52.016;8.714;2023-06-24T03:11:52;-16261.94;;;-139.71;75.29
3598;BME280;1813;52.016;8.714;2023-06-24T03:14:37;-16261.94;;;-139.71;75.14
3598;BME280;1813;52.016;8.714;2023-06-24T03:17:11;-16261.94;;;-139.71;74.22
3598;BME280;1813;52.016;8.714;2023-06-24T03:19:45;-16261.94;;;-139.71;74.18
3598;BME280;1813;52.016;8.714;2023-06-24T03:22:24;-16261.94;;;-139.71;75.16
3598;BME280;1813;52.016;8.714;2023-06-24T03:24:58;-16261.94;;;-139.71;75.70
3598;BME280;1813;52.016;8.714;2023-06-24T03:27:32;-16261.94;;;-139.71;75.78
3598;BME280;1813;52.016;8.714;2023-06-24T03:30:08;-16261.94;;;-139.71;75.54
3598;BME280;1813;52.016;8.714;2023-06-24T03:32:42;-16261.94;;;-139.71;75.53
3598;BME280;1813;52.016;8.714;2023-06-24T03:35:18;-16261.94;;;-139.71;75.68
3598;BME280;1813;52.016;8.714;2023-06-24T03:37:56;-16261.94;;;-139.71;75.63
3598;BME280;1813;52.016;8.714;2023-06-24T03:40:29;-16261.94;;;-139.71;76.11
3598;BME280;1813;52.016;8.714;2023-06-24T03:43:03;-16261.94;;;-139.71;76.01
3598;BME280;1813;52.016;8.714;2023-06-24T03:45:38;-16261.94;;;-139.71;76.11
3598;BME280;1813;52.016;8.714;2023-06-24T03:48:11;-16261.94;;;-139.71;76.10
3598;BME280;1813;52.016;8.714;2023-06-24T03:50:46;-16261.94;;;-139.71;75.70
3598;BME280;1813;52.016;8.714;2023-06-24T03:53:22;-16261.94;;;-139.71;76.07
3598;BME280;1813;52.016;8.714;2023-06-24T03:55:56;-16261.94;;;-139.71;75.85
3598;BME280;1813;52.016;8.714;2023-06-24T03:58:31;-16261.94;;;-139.71;75.66
3598;BME280;1813;52.016;8.714;2023-06-24T04:01:04;-16261.94;;;-139.71;76.00
3598;BME280;1813;52.016;8.714;2023-06-24T04:03:40;-16261.94;;;-139.71;76.31
3598;BME280;1813;52.016;8.714;2023-06-24T04:06:13;-16261.94;;;-139.71;76.58
3598;BME280;1813;52.016;8.714;2023-06-24T04:08:50;-16261.94;;;-139.71;76.82
3598;BME280;1813;52.016;8.714;2023-06-24T04:11:24;-16261.94;;;-139.71;77.19
3598;BME280;1813;52.016;8.714;2023-06-24T04:13:58;-16261.94;;;-139.71;77.34
3598;BME280;1813;52.016;8.714;2023-06-24T04:16:32;-16261.94;;;-139.71;77.32
3598;BME280;1813;52.016;8.714;2023-06-24T04:19:06;-16261.94;;;-139.71;77.47
3598;BME280;1813;52.016;8.714;2023-06-24T04:21:41;-16261.94;;;-139.71;77.81
3598;BME280;1813;52.016;8.714;2023-06-24T04:24:19;-16261.94;;;-139.71;77.96
3598;BME280;1813;52.016;8.714;2023-06-24T04:26:53;-16261.94;;;-139.71;78.35
3598;BME280;1813;52.016;8.714;2023-06-24T04:29:27;-16261.94;;;-139.71;78.57
3598;BME280;1813;52.016;8.714;2023-06-24T04:32:01;-16261.94;;;-139.71;78.78
3598;BME280;1813;52.016;8.714;2023-06-24T04:34:35;-16261.94;;;-139.71;78.71
3598;BME280;1813;52.016;8.714;2023-06-24T04:37:11;-16261.94;;;-139.71;78.85
3598;BME280;1813;52.016;8.714;2023-06-24T04:39:47;-16261.94;;;-139.71;79.55
3598;BME280;1813;52.016;8.714;2023-06-24T04:42:22;-16261.94;;;-139.71;79.52
3598;BME280;1813;52.016;8.714;2023-06-24T04:44:56;-16261.94;;;-139.71;79.97
3598;BME280;1813;52.016;8.714;2023-06-24T04:47:29;-16261.94;;;-139.71;79.97
3598;BME280;1813;52.016;8.714;2023-06-24T04:50:03;-16261.94;;;-139.71;79.40
3598;BME280;1813;52.016;8.714;2023-06-24T04:52:40;-16261.94;;;-139.71;78.48
3598;BME280;1813;52.016;8.714;2023-06-24T04:55:16;-16261.94;;;-139.71;78.15
3598;BME280;1813;52.016;8.714;2023-06-24T04:57:50;-16261.94;;;-139.71;78.09
3598;BME280;1813;52.016;8.714;2023-06-24T05:00:23;-16261.94;;;-139.71;78.17
3598;BME280;1813;52.016;8.714;2023-06-24T05:02:57;-16261.94;;;-139.71;78.44
3598;BME280;1813;52.016;8.714;2023-06-24T05:05:31;-16261.94;;;-139.71;78.06
3598;BME280;1813;52.016;8.714;2023-06-24T05:08:05;-16261.94;;;-139.71;78.16
3598;BME280;1813;52.016;8.714;2023-06-24T05:10:41;-16261.94;;;-139.71;78.86
3598;BME280;1813;52.016;8.714;2023-06-24T05:13:15;-16261.94;;;-139.71;78.50
3598;BME280;1813;52.016;8.714;2023-06-24T05:15:48;-16261.94;;;-139.71;78.46
3598;BME280;1813;52.016;8.714;2023-06-24T05:18:22;-16261.94;;;-139.71;77.76
3598;BME280;1813;52.016;8.714;2023-06-24T05:20:56;-16261.94;;;-139.71;77.76
3598;BME280;1813;52.016;8.714;2023-06-24T05:23:30;-16261.94;;;-139.71;78.01
3598;BME280;1813;52.016;8.714;2023-06-24T05:26:06;-16261.94;;;-139.71;78.11
3598;BME280;1813;52.016;8.714;2023-06-24T05:28:41;-16261.94;;;-139.71;78.19
3598;BME280;1813;52.016;8.714;2023-06-24T05:31:15;-16261.94;;;-139.71;78.53
3598;BME280;1813;52.016;8.714;2023-06-24T05:33:49;-16261.94;;;-139.71;77.87
3598;BME280;1813;52.016;8.714;2023-06-24T05:36:23;-16261.94;;;-139.71;76.87
3598;BME280;1813;52.016;8.714;2023-06-24T05:38:57;-16261.94;;;-139.71;76.60
3598;BME280;1813;52.016;8.714;2023-06-24T05:41:33;-16261.94;;;-139.71;76.46
3598;BME280;1813;52.016;8.714;2023-06-24T05:44:07;-16261.94;;;-139.71;76.48
3598;BME280;1813;52.016;8.714;2023-06-24T05:46:42;-16261.94;;;-139.71;76.05
3598;BME280;1813;52.016;8.714;2023-06-24T05:49:15;-16261.94;;;-139.71;75.49
3598;BME280;1813;52.016;8.714;2023-06-24T05:51:49;-16261.94;;;-139.71;75.15
3598;BME280;1813;52.016;8.714;2023-06-24T05:54:23;-16261.94;;;-139.71;74.69
3598;BME280;1813;52.016;8.714;2023-06-24T05:56:59;-16261.94;;;-139.71;74.41
3598;BME280;1813;52.016;8.714;2023-06-24T05:59:36;-16261.94;;;-139.71;74.29
3598;BME280;1813;52.016;8.714;2023-06-24T06:02:10;-16261.94;;;-139.71;74.22
3598;BME280;1813;52.016;8.714;2023-06-24T06:04:44;-16261.94;;;-139.71;74.44
3598;BME280;1813;52.016;8.714;2023-06-24T06:07:17;-16261.94;;;-139.71;74.18
3598;BME280;1813;52.016;8.714;2023-06-24T06:09:51;-16261.94;;;-139.71;74.24
3598;BME280;1813;52.016;8.714;2023-06-24T06:12:28;-16261.94;;;-139.71;73.84
3598;BME280;1813;52.016;8.714;2023-06-24T06:15:03;-16261.94;;;-139.71;73.77
3598;BME280;1813;52.016;8.714;2023-06-24T06:17:39;-16261.94;;;-139.71;74.82
3598;BME280;1813;52.016;8.714;2023-06-24T06:20:13;-16261.94;;;-139.71;75.04
3598;BME280;1813;52.016;8.714;2023-06-24T06:22:47;-16261.94;;;-139.71;75.12
3598;BME280;1813;52.016;8.714;2023-06-24T06:25:22;-16261.94;;;-139.71;75.24
3598;BME280;1813;52.016;8.714;2023-06-24T06:27:58;-16261.94;;;-139.71;74.64
3598;BME280;1813;52.016;8.714;2023-06-24T06:30:32;-16261.94;;;-139.71;73.06
3598;BME280;1813;52.016;8.714;2023-06-24T06:33:06;-16261.94;;;-139.71;71.66
3598;BME280;1813;52.016;8.714;2023-06-24T06:35:40;-16261.94;;;-139.71;71.79
3598;BME280;1813;52.016;8.714;2023-06-24T06:38:13;-16261.94;;;-139.71;72.38
3598;BME280;1813;52.016;8.714;2023-06-24T06:40:47;-16261.94;;;-139.71;72.42
3598;BME280;1813;52.016;8.714;2023-06-24T06:43:24;-16261.94;;;-139.71;71.92
3598;BME280;1813;52.016;8.714;2023-06-24T06:45:58;-16261.94;;;-139.71;70.60
3598;BME280;1813;52.016;8.714;2023-06-24T06:48:32;-16261.94;;;-139.71;69.60
3598;BME280;1813;52.016;8.714;2023-06-24T06:51:05;-16261.94;;;-139.71;68.10
3598;BME280;1813;52.016;8.714;2023-06-24T06:53:39;-16261.94;;;-139.71;68.10
3598;BME280;1813;52.016;8.714;2023-06-24T06:56:17;-16261.94;;;-139.71;67.88
3598;BME280;1813;52.016;8.714;2023-06-24T06:58:53;-16261.94;;;-139.71;66.13
3598;BME280;1813;52.016;8.714;2023-06-24T07:01:27;-16261.94;;;-139.71;65.63
3598;BME280;1813;52.016;8.714;2023-06-24T07:04:01;-16261.94;;;-139.71;63.50
3598;BME280;1813;52.016;8.714;2023-06-24T07:06:35;-16261.94;;;-139.71;62.21
3598;BME280;1813;52.016;8.714;2023-06-24T07:09:09;-16261.94;;;-139.71;62.81
3598;BME280;1813;52.016;8.714;2023-06-24T07:11:43;-16261.94;;;-139.71;62.67
3598;BME280;1813;52.016;8.714;2023-06-24T07:14:19;-16261.94;;;-139.71;62.40
3598;BME280;1813;52.016;8.714;2023-06-24T07:16:53;-16261.94;;;-139.71;60.49
3598;BME280;1813;52.016;8.714;2023-06-24T07:19:27;-16261.94;;;-139.71;58.98
3598;BME280;1813;52.016;8.714;2023-06-24T07:22:01;-16261.94;;;-139.71;58.34
3598;BME280;1813;52.016;8.714;2023-06-24T07:24:35;-16261.94;;;-139.71;58.37
3598;BME280;1813;52.016;8.714;2023-06-24T07:27:09;-16261.94;;;-139.71;56.73
3598;BME280;1813;52.016;8.714;2023-06-24T07:29:45;-16261.94;;;-139.71;55.97
3598;BME280;1813;52.016;8.714;2023-06-24T07:32:19;-16261.94;;;-139.71;54.38
3598;BME280;1813;52.016;8.714;2023-06-24T07:34:52;-16261.94;;;-139.71;55.24
3598;BME280;1813;52.016;8.714;2023-06-24T07:37:26;-16261.94;;;-139.71;54.38
3598;BME280;1813;52.016;8.714;2023-06-24T07:40:00;-16261.94;;;-139.71;54.01
3598;BME280;1813;52.016;8.714;2023-06-24T07:42:34;-16261.94;;;-139.71;53.28
3598;BME280;1813;52.016;8.714;2023-06-24T07:45:10;-16261.94;;;-139.71;52.38
3598;BME280;1813;52.016;8.714;2023-06-24T07:47:44;-16261.94;;;-139.71;51.50
3598;BME280;1813;52.016;8.714;2023-06-24T07:50:18;-16261.94;;;-139.71;51.71
3598;BME280;1813;52.016;8.714;2023-06-24T07:52:52;-16261.94;;;-139.71;51.25
3598;BME280;1813;52.016;8.714;2023-06-24T07:55:25;-16261.94;;;-139.71;52.01
3598;BME280;1813;52.016;8.714;2023-06-24T07:57:59;-16261.94;;;-139.71;51.09
3598;BME280;1813;52.016;8.714;2023-06-24T08:00:36;-16261.94;;;-139.71;50.97
3598;BME280;1813;52.016;8.714;2023-06-24T08:03:09;-16261.94;;;-139.71;52.42
3598;BME280;1813;52.016;8.714;2023-06-24T08:05:43;-16261.94;;;-139.71;50.24
3598;BME280;1813;52.016;8.714;2023-06-24T08:08:17;-16261.94;;;-139.71;51.46
3598;BME280;1813;52.016;8.714;2023-06-24T08:10:51;-16261.94;;;-139.71;51.50
3598;BME280;1813;52.016;8.714;2023-06-24T08:13:25;-16261.94;;;-139.71;52.48
3598;BME280;1813;52.016;8.714;2023-06-24T08:16:02;-16261.94;;;-139.71;50.39
3598;BME280;1813;52.016;8.714;2023-06-24T08:18:36;-16261.94;;;-139.71;49.17
3598;BME280;1813;52.016;8.714;2023-06-24T08:21:10;-16261.94;;;-139.71;47.29
3598;BME280;1813;52.016;8.714;2023-06-24T08:23:43;-16261.94;;;-139.71;46.07
3598;BME280;1813;52.016;8.714;2023-06-24T08:26:19;-16261.94;;;-139.71;45.79
3598;BME280;1813;52.016;8.714;2023-06-24T08:28:53;-16261.94;;;-139.71;45.12
3598;BME280;1813;52.016;8.714;2023-06-24T08:31:29;-16261.94;;;-139.71;44.80
3598;BME280;1813;52.016;8.714;2023-06-24T08:34:03;-16261.94;;;-139.71;44.47
3598;BME280;1813;52.016;8.714;2023-06-24T08:36:37;-16261.94;;;-139.71;46.32
3598;BME280;1813;52.016;8.714;2023-06-24T08:39:11;-16261.94;;;-139.71;47.02
3598;BME280;1813;52.016;8.714;2023-06-24T08:41:45;-16261.94;;;-139.71;47.25
3598;BME280;1813;52.016;8.714;2023-06-24T08:44:19;-16261.94;;;-139.71;46.96
3598;BME280;1813;52.016;8.714;2023-06-24T08:46:56;-16261.94;;;-139.71;46.71
3598;BME280;1813;52.016;8.714;2023-06-24T08:49:30;-16261.94;;;-139.71;42.73
3598;BME280;1813;52.016;8.714;2023-06-24T08:52:10;-16261.94;;;-139.71;41.19
3598;BME280;1813;52.016;8.714;2023-06-24T08:54:47;-16261.94;;;-139.71;41.23
3598;BME280;1813;52.016;8.714;2023-06-24T08:57:22;-16261.94;;;-139.71;40.47
3598;BME280;1813;52.016;8.714;2023-06-24T08:59:57;-16261.94;;;-139.71;40.28
3598;BME280;1813;52.016;8.714;2023-06-24T09:02:33;-16261.94;;;-139.71;40.62
3598;BME280;1813;52.016;8.714;2023-06-24T09:05:08;-16261.94;;;-139.71;38.89
3598;BME280;1813;52.016;8.714;2023-06-24T09:07:42;-16261.94;;;-139.71;38.47
3598;BME280;1813;52.016;8.714;2023-06-24T09:10:29;-16261.94;;;-139.71;40.04
3598;BME280;1813;52.016;8.714;2023-06-24T09:13:05;-16261.94;;;-139.71;39.72
3598;BME280;1813;52.016;8.714;2023-06-24T09:15:39;-16261.94;;;-139.71;38.81
3598;BME280;1813;52.016;8.714;2023-06-24T09:18:15;-16261.94;;;-139.71;39.35
3598;BME280;1813;52.016;8.714;2023-06-24T09:20:49;-16261.94;;;-139.71;38.62
3598;BME280;1813;52.016;8.714;2023-06-24T09:23:25;-16261.94;;;-139.71;37.92
3598;BME280;1813;52.016;8.714;2023-06-24T09:26:00;-16261.94;;;-139.71;37.93
3598;BME280;1813;52.016;8.714;2023-06-24T09:28:33;-16261.94;;;-139.71;39.07
3598;BME280;1813;52.016;8.714;2023-06-24T09:31:09;-16261.94;;;-139.71;40.14
3598;BME280;1813;52.016;8.714;2023-06-24T09:33:46;-16261.94;;;-139.71;38.28
3598;BME280;1813;52.016;8.714;2023-06-24T09:36:20;-16261.94;;;-139.71;38.27
3598;BME280;1813;52.016;8.714;2023-06-24T09:38:54;-16261.94;;;-139.71;36.51
3598;BME280;1813;52.016;8.714;2023-06-24T09:41:28;-16261.94;;;-139.71;35.75
3598;BME280;1813;52.016;8.714;2023-06-24T09:44:02;-16261.94;;;-139.71;36.11
3598;BME280;1813;52.016;8.714;2023-06-24T09:46:36;-16261.94;;;-139.71;36.86
3598;BME280;1813;52.016;8.714;2023-06-24T09:49:13;-16261.94;;;-139.71;37.38
3598;BME280;1813;52.016;8.714;2023-06-24T09:51:49;-16261.94;;;-139.71;36.59
3598;BME280;1813;52.016;8.714;2023-06-24T09:54:25;-16261.94;;;-139.71;36.31
3598;BME280;1813;52.016;8.714;2023-06-24T09:57:02;-16261.94;;;-139.71;35.28
3598;BME280;1813;52.016;8.714;2023-06-24T09:59:37;-16261.94;;;-139.71;36.79
3598;BME280;1813;52.016;8.714;2023-06-24T10:02:13;-16261.94;;;-139.71;36.72
3598;BME280;1813;52.016;8.714;2023-06-24T10:04:51;-16261.94;;;-139.71;36.08
3598;BME280;1813;52.016;8.714;2023-06-24T10:07:26;-16261.94;;;-139.71;35.92
3598;BME280;1813;52.016;8.714;2023-06-24T10:10:01;-16261.94;;;-139.71;35.31
3598;BME280;1813;52.016;8.714;2023-06-24T10:12:35;-16261.94;;;-139.71;36.64
3598;BME280;1813;52.016;8.714;2023-06-24T10:15:10;-16261.94;;;-139.71;37.08
3598;BME280;1813;52.016;8.714;2023-06-24T10:17:45;-16261.94;;;-139.71;38.08
3598;BME280;1813;52.016;8.714;2023-06-24T10:20:26;-16261.94;;;-139.71;36.60
3598;BME280;1813;52.016;8.714;2023-06-24T10:23:05;-16261.94;;;-139.71;35.87
3598;BME280;1813;52.016;8.714;2023-06-24T10:25:39;-16261.94;;;-139.71;36.70
3598;BME280;1813;52.016;8.714;2023-06-24T10:28:13;-16261.94;;;-139.71;36.53
3598;BME280;1813;52.016;8.714;2023-06-24T10:30:54;-16261.94;;;-139.71;36.55
3598;BME280;1813;52.016;8.714;2023-06-24T10:33:28;-16261.94;;;-139.71;36.53
3598;BME280;1813;52.016;8.714;2023-06-24T10:36:31;-16261.94;;;-139.71;35.89
3598;BME280;1813;52.016;8.714;2023-06-24T10:39:05;-16261.94;;;-139.71;36.70
3598;BME280;1813;52.016;8.714;2023-06-24T10:41:39;-16261.94;;;-139.71;35.33
3598;BME280;1813;52.016;8.714;2023-06-24T10:44:15;-16261.94;;;-139.71;35.89
3598;BME280;1813;52.016;8.714;2023-06-24T10:46:53;-16261.94;;;-139.71;35.06
3598;BME280;1813;52.016;8.714;2023-06-24T10:49:27;-16261.94;;;-139.71;34.74
3598;BME280;1813;52.016;8.714;2023-06-24T10:52:04;-16261.94;;;-139.71;35.47
3598;BME280;1813;52.016;8.714;2023-06-24T10:54:38;-16261.94;;;-139.71;36.34
3598;BME280;1813;52.016;8.714;2023-06-24T10:57:12;-16261.94;;;-139.71;37.08
3598;BME280;1813;52.016;8.714;2023-06-24T10:59:47;-16261.94;;;-139.71;36.96
3598;BME280;1813;52.016;8.714;2023-06-24T11:02:22;-16261.94;;;-139.71;36.47
3598;BME280;1813;52.016;8.714;2023-06-24T11:04:57;-16261.94;;;-139.71;36.37
3598;BME280;1813;52.016;8.714;2023-06-24T11:07:35;-16261.94;;;-139.71;35.70
3598;BME280;1813;52.016;8.714;2023-06-24T11:10:11;-16261.94;;;-139.71;36.39
3598;BME280;1813;52.016;8.714;2023-06-24T11:12:46;-16261.94;;;-139.71;35.74
3598;BME280;1813;52.016;8.714;2023-06-24T11:15:20;-16261.94;;;-139.71;36.53
3598;BME280;1813;52.016;8.714;2023-06-24T11:17:54;-16261.94;;;-139.71;35.87
3598;BME280;1813;52.016;8.714;2023-06-24T11:20:28;-16261.94;;;-139.71;36.29
3598;BME280;1813;52.016;8.714;2023-06-24T11:23:06;-16261.94;;;-139.71;34.97
3598;BME280;1813;52.016;8.714;2023-06-24T11:25:43;-16261.94;;;-139.71;34.13
3598;BME280;1813;52.016;8.714;2023-06-24T11:28:17;-16261.94;;;-139.71;33.77
3598;BME280;1813;52.016;8.714;2023-06-24T11:30:52;-16261.94;;;-139.71;34.37
3598;BME280;1813;52.016;8.714;2023-06-24T11:33:26;-16261.94;;;-139.71;33.89
3598;BME280;1813;52.016;8.714;2023-06-24T11:36:01;-16261.94;;;-139.71;34.47
3598;BME280;1813;52.016;8.714;2023-06-24T11:38:37;-16261.94;;;-139.71;35.28
3598;BME280;1813;52.016;8.714;2023-06-24T11:41:12;-16261.94;;;-139.71;34.23
3598;BME280;1813;52.016;8.714;2023-06-24T11:43:46;-16261.94;;;-139.71;33.27
3598;BME280;1813;52.016;8.714;2023-06-24T11:46:24;-16261.94;;;-139.71;33.96
3598;BME280;1813;52.016;8.714;2023-06-24T11:49:03;-16261.94;;;-139.71;34.21
3598;BME280;1813;52.016;8.714;2023-06-24T11:51:37;-16261.94;;;-139.71;35.28
3598;BME280;1813;52.016;8.714;2023-06-24T11:54:21;-16261.94;;;-139.71;34.83
3598;BME280;1813;52.016;8.714;2023-06-24T11:56:55;-16261.94;;;-139.71;34.45
3598;BME280;1813;52.016;8.714;2023-06-24T11:59:28;-16261.94;;;-139.71;34.87
3598;BME280;1813;52.016;8.714;2023-06-24T12:02:03;-16261.94;;;-139.71;36.09
3598;BME280;1813;52.016;8.714;2023-06-24T12:04:36;-16261.94;;;-139.71;36.00
3598;BME280;1813;52.016;8.714;2023-06-24T12:07:11;-16261.94;;;-139.71;34.92
3598;BME280;1813;52.016;8.714;2023-06-24T12:09:48;-16261.94;;;-139.71;35.00
3598;BME280;1813;52.016;8.714;2023-06-24T12:12:22;-16261.94;;;-139.71;35.26
3598;BME280;1813;52.016;8.714;2023-06-24T12:14:55;-16261.94;;;-139.71;35.35
3598;BME280;1813;52.016;8.714;2023-06-24T12:17:29;-16261.94;;;-139.71;35.26
3598;BME280;1813;52.016;8.714;2023-06-24T12:20:04;-16261.94;;;-139.71;35.97
3598;BME280;1813;52.016;8.714;2023-06-24T12:22:38;-16261.94;;;-139.71;35.08
3598;BME280;1813;52.016;8.714;2023-06-24T12:25:15;-16261.94;;;-139.71;36.25
3598;BME280;1813;52.016;8.714;2023-06-24T12:27:49;-16261.94;;;-139.71;35.20
3598;BME280;1813;52.016;8.714;2023-06-24T12:30:23;-16261.94;;;-139.71;34.62
3598;BME280;1813;52.016;8.714;2023-06-24T12:32:57;-16261.94;;;-139.71;35.84
3598;BME280;1813;52.016;8.714;2023-06-24T12:35:31;-16261.94;;;-139.71;35.49
3598;BME280;1813;52.016;8.714;2023-06-24T12:38:05;-16261.94;;;-139.71;35.21
3598;BME280;1813;52.016;8.714;2023-06-24T12:40:41;-16261.94;;;-139.71;35.84
3598;BME280;1813;52.016;8.714;2023-06-24T12:43:15;-16261.94;;;-139.71;36.59
3598;BME280;1813;52.016;8.714;2023-06-24T12:45:49;-16261.94;;;-139.71;35.83
3598;BME280;1813;52.016;8.714;2023-06-24T12:48:23;-16261.94;;;-139.71;36.92
3598;BME280;1813;52.016;8.714;2023-06-24T12:50:57;-16261.94;;;-139.71;35.98
3598;BME280;1813;52.016;8.714;2023-06-24T12:53:30;-16261.94;;;-139.71;36.22
3598;BME280;1813;52.016;8.714;2023-06-24T12:56:07;-16261.94;;;-139.71;35.61
3598;BME280;1813;52.016;8.714;2023-06-24T12:58:41;-16261.94;;;-139.71;34.31
3598;BME280;1813;52.016;8.714;2023-06-24T13:01:15;-16261.94;;;-139.71;34.96
3598;BME280;1813;52.016;8.714;2023-06-24T13:03:49;-16261.94;;;-139.71;35.10
3598;BME280;1813;52.016;8.714;2023-06-24T13:06:23;-16261.94;;;-139.71;33.46
3598;BME280;1813;52.016;8.714;2023-06-24T13:08:56;-16261.94;;;-139.71;35.08
3598;BME280;1813;52.016;8.714;2023-06-24T13:11:33;-16261.94;;;-139.71;33.77
3598;BME280;1813;52.016;8.714;2023-06-24T13:14:08;-16261.94;;;-139.71;33.66
3598;BME280;1813;52.016;8.714;2023-06-24T13:16:42;-16261.94;;;-139.71;34.80
3598;BME280;1813;52.016;8.714;2023-06-24T13:19:15;-16261.94;;;-139.71;35.75
3598;BME280;1813;52.016;8.714;2023-06-24T13:21:50;-16261.94;;;-139.71;35.25
3598;BME280;1813;52.016;8.714;2023-06-24T13:24:23;-16261.94;;;-139.71;35.39
3598;BME280;1813;52.016;8.714;2023-06-24T13:27:00;-16261.94;;;-139.71;34.05
3598;BME280;1813;52.016;8.714;2023-06-24T13:29:34;-16261.94;;;-139.71;33.17
3598;BME280;1813;52.016;8.714;2023-06-24T13:32:08;-16261.94;;;-139.71;34.24
3598;BME280;1813;52.016;8.714;2023-06-24T13:34:42;-16261.94;;;-139.71;33.91
3598;BME280;1813;52.016;8.714;2023-06-24T13:37:16;-16261.94;;;-139.71;33.17
3598;BME280;1813;52.016;8.714;2023-06-24T13:39:50;-16261.94;;;-139.71;32.12